Time;durP1;ratioP1;P1;durP2;ratioP2;P2;SDS_P1;SDS_P2;PMS_P1;PMS_P2;Temp;Humidity;BMP_temperature;BMP_pressure;BME280_temperature;BME280_humidity;BME280_pressure;Samples;Min_cycle;Max_cycle;Signal;HPM_P1;HPM_P2
2022/05/29 00:00:23;;;;;;;18.48;3.95;;;11.90;99.90;;;;;;5073648;28;20056;-68
2022/05/29 00:02:49;;;;;;;16.63;3.70;;;10.70;99.90;;;;;;5073366;28;20052;-67
2022/05/29 00:05:15;;;;;;;18.30;3.58;;;10.80;99.90;;;;;;5073421;28;20044;-69
2022/05/29 00:07:44;;;;;;;18.27;3.70;;;10.60;99.90;;;;;;5072095;28;20083;-67
2022/05/29 00:10:10;;;;;;;18.48;4.13;;;10.60;99.90;;;;;;5072828;28;20049;-67
2022/05/29 00:12:36;;;;;;;19.73;3.85;;;10.60;99.90;;;;;;5073121;28;20052;-67
2022/05/29 00:15:02;;;;;;;19.98;3.63;;;10.40;99.90;;;;;;5073148;28;20037;-70
2022/05/29 00:17:28;;;;;;;;;;;10.90;99.90;;;;;;5073711;28;20132;-68
2022/05/29 00:19:54;;;;;;;18.42;3.17;;;10.80;99.90;;;;;;5073085;28;20015;-70
2022/05/29 00:22:22;;;;;;;20.05;3.92;;;10.50;99.90;;;;;;5073132;28;20049;-68
2022/05/29 00:24:49;;;;;;;20.02;3.45;;;11.70;99.90;;;;;;5072942;28;20128;-66
2022/05/29 00:27:16;;;;;;;14.68;2.92;;;11.90;99.90;;;;;;5072811;28;20088;-67
2022/05/29 00:29:43;;;;;;;14.65;3.10;;;10.50;99.90;;;;;;5071888;28;20087;-67
2022/05/29 00:32:09;;;;;;;14.77;2.90;;;10.90;99.90;;;;;;5072934;28;20127;-68
2022/05/29 00:34:35;;;;;;;16.65;2.92;;;10.80;99.90;;;;;;5072874;28;20144;-67
2022/05/29 00:37:04;;;;;;;;;;;11.80;99.90;;;;;;5073298;28;20056;-68
2022/05/29 00:39:29;;;;;;;14.05;3.00;;;10.70;99.90;;;;;;5105572;28;19920;-67
2022/05/29 00:41:55;;;;;;;16.88;3.70;;;10.70;99.90;;;;;;5072696;28;20044;-67
2022/05/29 00:44:25;;;;;;;13.93;3.10;;;10.90;99.90;;;;;;5072943;28;20040;-68
2022/05/29 00:47:15;;;;;;;14.63;3.28;;;11.00;99.90;;;;;;5072829;28;20044;-67
2022/05/29 00:49:44;;;;;;;14.50;3.10;;;11.40;99.90;;;;;;5072515;28;20057;-66
2022/05/29 00:52:24;;;;;;;14.82;3.03;;;12.30;99.90;;;;;;5072482;28;20052;-67
2022/05/29 00:55:05;;;;;;;16.92;3.58;;;10.90;99.90;;;;;;5072518;28;20120;-69
2022/05/29 00:57:35;;;;;;;17.25;4.25;;;11.10;99.90;;;;;;5072806;28;20043;-66
2022/05/29 01:00:14;;;;;;;16.08;3.13;;;11.60;99.90;;;;;;5072617;28;20051;-68
2022/05/29 01:02:41;;;;;;;18.98;3.60;;;11.00;99.90;;;;;;5072373;28;20056;-68
2022/05/29 01:05:09;;;;;;;13.13;3.03;;;10.70;99.90;;;;;;5072600;28;20048;-67
2022/05/29 01:07:36;;;;;;;11.52;3.10;;;10.90;99.90;;;;;;5104674;28;20059;-68
2022/05/29 01:10:03;;;;;;;12.65;3.58;;;10.70;99.90;;;;;;5072495;28;20123;-67
2022/05/29 01:12:53;;;;;;;12.82;3.20;;;11.00;99.90;;;;;;5072308;28;20132;-68
2022/05/29 01:15:43;;;;;;;15.25;3.45;;;10.70;99.90;;;;;;5072219;28;20182;-69
2022/05/29 01:18:31;;;;;;;11.38;3.00;;;10.90;99.90;;;;;;5072411;28;20041;-66
2022/05/29 01:21:25;;;;;;;10.43;3.17;;;10.60;99.90;;;;;;5072126;28;20559;-67
2022/05/29 01:24:24;;;;;;;15.20;3.17;;;11.10;99.90;;;;;;5072358;28;20040;-71
2022/05/29 01:27:08;;;;;;;18.85;3.08;;;10.90;99.90;;;;;;5072405;28;20048;-69
2022/05/29 01:29:48;;;;;;;11.55;2.75;;;10.90;99.90;;;;;;5070921;28;20040;-66
2022/05/29 01:32:50;;;;;;;11.60;3.15;;;10.90;99.90;;;;;;5072448;28;20158;-67
2022/05/29 01:35:24;;;;;;;11.20;2.67;;;11.00;99.90;;;;;;5070571;28;20059;-67
2022/05/29 01:38:22;;;;;;;15.15;2.92;;;12.10;99.90;;;;;;5072091;28;20052;-67
2022/05/29 01:41:03;;;;;;;13.43;2.65;;;10.80;99.90;;;;;;5072162;28;20040;-67
2022/05/29 01:43:38;;;;;;;13.75;3.45;;;10.90;99.90;;;;;;5072435;28;20053;-69
2022/05/29 01:46:31;;;;;;;21.58;3.22;;;11.30;99.90;;;;;;5071996;28;20136;-68
2022/05/29 01:49:26;;;;;;;12.68;2.50;;;11.20;99.90;;;;;;5072231;28;20055;-67
2022/05/29 01:52:10;;;;;;;11.70;2.85;;;11.10;99.90;;;;;;5072091;28;20045;-65
2022/05/29 01:54:52;;;;;;;18.58;2.83;;;11.00;99.90;;;;;;5070559;28;20047;-66
2022/05/29 01:57:23;;;;;;;17.20;3.03;;;11.30;99.90;;;;;;5072085;28;20088;-67
2022/05/29 01:59:58;;;;;;;9.05;2.65;;;11.40;99.90;;;;;;5071845;28;20232;-66
2022/05/29 02:02:48;;;;;;;14.27;2.95;;;12.10;99.90;;;;;;5070672;28;20483;-66
2022/05/29 02:05:25;;;;;;;7.85;2.80;;;11.00;99.90;;;;;;5071141;28;20049;-67
2022/05/29 02:08:03;;;;;;;11.38;2.53;;;10.80;99.90;;;;;;5071987;28;20411;-67
2022/05/29 02:10:50;;;;;;;13.65;2.30;;;11.50;99.90;;;;;;5071898;28;20049;-68
2022/05/29 02:13:30;;;;;;;8.95;2.88;;;11.10;99.90;;;;;;5071743;28;20433;-68
2022/05/29 02:15:55;;;;;;;12.38;2.35;;;10.90;99.90;;;;;;5071960;28;20404;-69
2022/05/29 02:19:00;;;;;;;11.68;2.97;;;12.30;99.90;;;;;;5071875;28;20040;-66
2022/05/29 02:21:30;;;;;;;17.33;3.83;;;10.60;99.90;;;;;;5070526;28;20090;-66
2022/05/29 02:24:00;;;;;;;17.85;4.07;;;10.60;99.90;;;;;;5071606;28;20048;-67
2022/05/29 02:26:31;;;;;;;19.55;3.90;;;10.70;99.90;;;;;;5071625;28;20048;-67
2022/05/29 02:29:04;;;;;;;15.68;3.25;;;10.20;99.90;;;;;;5071682;28;20060;-67
2022/05/29 02:31:51;;;;;;;18.58;3.88;;;10.00;99.90;;;;;;5072486;28;20048;-67
2022/05/29 02:34:35;;;;;;;14.77;3.70;;;9.80;99.90;;;;;;5074772;28;20055;-65
2022/05/29 02:37:12;;;;;;;18.48;3.83;;;10.10;99.90;;;;;;5075284;28;20492;-66
2022/05/29 02:39:52;;;;;;;23.75;4.15;;;10.30;99.90;;;;;;5075151;28;20131;-66
2022/05/29 02:42:48;;;;;;;28.67;5.68;;;10.00;99.90;;;;;;5074937;28;20187;-66
2022/05/29 02:45:30;;;;;;;16.13;3.10;;;10.20;99.90;;;;;;5066349;28;20404;-66
2022/05/29 02:48:25;;;;;;;19.35;3.78;;;10.20;99.90;;;;;;5074855;28;20067;-67
2022/05/29 02:51:03;;;;;;;15.48;3.13;;;9.70;99.90;;;;;;5072555;28;20052;-66
2022/05/29 02:53:32;;;;;;;12.88;2.70;;;10.00;99.90;;;;;;5074924;28;20084;-67
2022/05/29 02:55:58;;;;;;;15.48;3.50;;;10.70;99.90;;;;;;5074752;28;20045;-66
2022/05/29 02:58:28;;;;;;;15.13;2.67;;;10.30;99.90;;;;;;5074744;28;20118;-67
2022/05/29 03:01:19;;;;;;;15.10;2.83;;;10.40;99.90;;;;;;5074652;28;20045;-64
2022/05/29 03:04:10;;;;;;;14.52;2.80;;;10.30;99.90;;;;;;5074533;28;20036;-68
2022/05/29 03:06:42;;;;;;;11.13;2.40;;;10.40;99.90;;;;;;5074696;28;20095;-67
2022/05/29 03:09:07;;;;;;;16.15;2.40;;;11.60;99.90;;;;;;5074561;28;20095;-66
2022/05/29 03:11:39;;;;;;;10.52;2.97;;;10.40;99.90;;;;;;5074508;28;20088;-66
2022/05/29 03:14:11;;;;;;;17.55;2.60;;;10.20;99.90;;;;;;5074177;28;20048;-68
2022/05/29 03:16:51;;;;;;;14.93;2.83;;;10.50;99.90;;;;;;5074465;28;20135;-65
2022/05/29 03:19:32;;;;;;;11.23;2.90;;;10.60;99.90;;;;;;5074516;28;20459;-65
2022/05/29 03:22:19;;;;;;;16.92;2.83;;;10.70;99.90;;;;;;5074162;28;20500;-67
2022/05/29 03:24:59;;;;;;;;;;;10.00;99.90;;;;;;5074917;28;20048;-66
2022/05/29 03:27:31;;;;;;;15.15;2.90;;;10.00;99.90;;;;;;5074108;28;19932;-67
2022/05/29 03:30:03;;;;;;;9.82;2.47;;;10.40;99.90;;;;;;5074234;28;20049;-66
2022/05/29 03:32:30;;;;;;;16.33;3.47;;;10.10;99.90;;;;;;5074208;28;20175;-67
2022/05/29 03:34:56;;;;;;;13.95;3.00;;;10.10;99.90;;;;;;5073561;28;20060;-70
2022/05/29 03:37:21;;;;;;;19.20;3.08;;;10.60;99.90;;;;;;5073940;28;20067;-67
2022/05/29 03:39:47;;;;;;;19.60;3.33;;;11.50;99.90;;;;;;5073916;28;20052;-68
2022/05/29 03:42:13;;;;;;;14.80;2.75;;;10.30;99.90;;;;;;5073967;28;20149;-68
2022/05/29 03:44:39;;;;;;;17.50;2.90;;;10.10;99.90;;;;;;5073072;28;20512;-68
2022/05/29 03:47:05;;;;;;;16.52;3.47;;;10.30;99.90;;;;;;5073781;28;20041;-68
2022/05/29 03:49:31;;;;;;;12.38;3.40;;;10.30;99.90;;;;;;5073755;28;20475;-66
2022/05/29 03:51:57;;;;;;;15.27;3.00;;;10.70;99.90;;;;;;5073881;28;20131;-67
2022/05/29 03:54:23;;;;;;;;;;;10.30;99.90;;;;;;5074109;28;20049;-67
2022/05/29 03:56:49;;;;;;;12.30;3.42;;;10.80;99.90;;;;;;5073550;28;19932;-68
2022/05/29 03:59:15;;;;;;;19.73;3.60;;;9.90;99.90;;;;;;5072368;28;20162;-68
2022/05/29 04:01:41;;;;;;;22.10;3.10;;;10.20;99.90;;;;;;5073545;28;20048;-64
2022/05/29 04:04:07;;;;;;;18.30;3.08;;;10.10;99.90;;;;;;5073293;28;20480;-67
2022/05/29 04:06:34;;;;;;;15.60;3.03;;;10.20;99.90;;;;;;5073254;28;20045;-66
2022/05/29 04:12:04;;;;;;;16.92;3.53;;;9.90;99.90;;;;;;5073403;28;20079;-66
2022/05/29 04:14:35;;;;;;;17.42;3.65;;;9.90;99.90;;;;;;5100649;28;20056;-66
2022/05/29 04:17:01;;;;;;;14.38;2.95;;;10.00;99.90;;;;;;5073404;28;20048;-67
2022/05/29 04:19:27;;;;;;;12.35;2.40;;;10.20;99.90;;;;;;5073023;28;20123;-68
2022/05/29 04:21:53;;;;;;;11.80;2.40;;;10.10;99.90;;;;;;5073104;28;20136;-66
2022/05/29 04:24:20;;;;;;;13.23;2.85;;;9.90;99.90;;;;;;5073105;28;20045;-69
2022/05/29 04:26:50;;;;;;;13.07;2.70;;;11.70;99.90;;;;;;5072957;28;20725;-66
2022/05/29 04:29:17;;;;;;;20.00;2.63;;;10.50;99.90;;;;;;5072743;28;20092;-66
2022/05/29 04:32:59;;;;;;;15.85;2.83;;;9.90;99.90;;;;;;5072829;28;20545;-67
2022/05/29 04:34:28;;;;;;;12.93;2.90;;;10.10;99.90;;;;;;5071271;28;20060;-67
2022/05/29 04:36:54;;;;;;;14.55;2.30;;;10.30;99.90;;;;;;5071699;28;20086;-65
2022/05/29 04:39:20;;;;;;;14.68;2.58;;;11.10;99.90;;;;;;5072628;28;20131;-69
2022/05/29 04:41:46;;;;;;;15.82;2.90;;;11.60;99.90;;;;;;5072641;28;20084;-66
2022/05/29 04:44:11;;;;;;;11.98;2.70;;;11.80;99.90;;;;;;5071506;28;20098;-67
2022/05/29 04:46:37;;;;;;;14.57;2.97;;;10.50;99.90;;;;;;5072715;28;20099;-67
2022/05/29 04:49:03;;;;;;;18.05;3.00;;;11.50;99.90;;;;;;5072681;28;20052;-67
2022/05/29 04:51:29;;;;;;;16.23;3.05;;;10.50;99.90;;;;;;5072636;28;20084;-67
2022/05/29 04:53:55;;;;;;;11.48;2.67;;;10.50;99.90;;;;;;5072211;28;20087;-69
2022/05/29 04:56:20;;;;;;;16.75;2.92;;;10.80;99.90;;;;;;5072173;28;20052;-68
2022/05/29 04:58:46;;;;;;;18.63;3.33;;;11.60;99.90;;;;;;5072693;28;20071;-68
2022/05/29 05:01:12;;;;;;;21.75;2.90;;;10.30;99.90;;;;;;5072430;28;20044;-65
2022/05/29 05:03:38;;;;;;;13.75;2.85;;;10.00;99.90;;;;;;5072455;28;20133;-67
2022/05/29 05:06:03;;;;;;;18.92;2.80;;;9.70;99.90;;;;;;5072277;28;20051;-66
2022/05/29 05:08:29;;;;;;;14.70;2.65;;;9.60;99.90;;;;;;5072610;28;20052;-66
2022/05/29 05:10:55;;;;;;;22.17;3.75;;;9.50;99.90;;;;;;5072194;28;20050;-67
2022/05/29 05:13:21;;;;;;;23.02;3.60;;;9.80;99.90;;;;;;5072432;28;20374;-66
2022/05/29 05:15:47;;;;;;;;;;;10.10;99.90;;;;;;5072648;28;20087;-67
2022/05/29 05:18:13;;;;;;;19.20;2.88;;;9.70;99.90;;;;;;5072219;28;20382;-66
2022/05/29 05:20:39;;;;;;;20.52;3.47;;;9.80;99.90;;;;;;5072324;28;20040;-68
2022/05/29 05:23:05;;;;;;;;;;;9.50;99.90;;;;;;5072676;28;20458;-66
2022/05/29 05:25:31;;;;;;;18.85;3.60;;;9.90;99.90;;;;;;5070898;28;19920;-66
2022/05/29 05:27:57;;;;;;;24.58;3.58;;;10.80;99.90;;;;;;5105001;28;20683;-66
2022/05/29 05:30:22;;;;;;;16.63;3.22;;;10.20;99.90;;;;;;5072356;28;20080;-67
2022/05/29 05:32:48;;;;;;;17.95;3.53;;;10.10;99.90;;;;;;5072034;28;20055;-68
2022/05/29 05:35:14;;;;;;;17.48;2.97;;;10.20;99.90;;;;;;5071924;28;20067;-65
2022/05/29 05:37:42;;;;;;;23.75;3.47;;;10.20;99.90;;;;;;5071876;28;20052;-68
2022/05/29 05:40:11;;;;;;;20.50;3.25;;;10.30;99.90;;;;;;5071788;28;20067;-69
2022/05/29 05:42:37;;;;;;;20.55;4.10;;;10.30;99.90;;;;;;5070673;28;20041;-65
2022/05/29 05:45:05;;;;;;;13.15;2.85;;;11.70;99.90;;;;;;5071983;28;20123;-68
2022/05/29 05:47:30;;;;;;;19.73;3.05;;;10.00;99.90;;;;;;5072046;28;20044;-68
2022/05/29 05:49:56;;;;;;;18.55;3.50;;;10.90;99.90;;;;;;5104429;28;20048;-67
2022/05/29 05:52:22;;;;;;;17.88;3.95;;;10.40;99.90;;;;;;5071835;28;20114;-66
2022/05/29 05:54:47;;;;;;;17.92;3.47;;;10.50;99.90;;;;;;5082516;28;20097;-69
2022/05/29 05:57:13;;;;;;;17.08;3.30;;;10.60;99.90;;;;;;5092025;28;20407;-67
2022/05/29 05:59:40;;;;;;;14.70;3.25;;;10.50;99.90;;;;;;5090911;28;20047;-67
2022/05/29 06:02:09;;;;;;;15.20;2.78;;;10.70;99.90;;;;;;5092009;28;20131;-69
2022/05/29 06:04:37;;;;;;;15.50;3.15;;;10.50;99.90;;;;;;5092007;28;20043;-67
2022/05/29 06:07:03;;;;;;;17.58;4.05;;;10.60;99.90;;;;;;5093401;28;20491;-69
2022/05/29 06:09:29;;;;;;;15.70;2.42;;;10.50;99.90;;;;;;5094545;28;20079;-70
2022/05/29 06:11:55;;;;;;;;;;;11.80;99.90;;;;;;5096198;28;20084;-67
2022/05/29 06:14:21;;;;;;;15.88;2.80;;;11.10;99.90;;;;;;5095835;28;19920;-66
2022/05/29 06:16:47;;;;;;;17.85;2.78;;;10.70;99.90;;;;;;5095687;28;20074;-67
2022/05/29 06:19:13;;;;;;;15.55;2.90;;;10.80;99.90;;;;;;5095630;28;20047;-68
2022/05/29 06:21:39;;;;;;;13.98;3.05;;;10.60;99.90;;;;;;5091992;28;20040;-68
2022/05/29 06:24:05;;;;;;;16.17;2.53;;;11.00;99.90;;;;;;5093774;28;20070;-68
2022/05/29 06:26:31;;;;;;;13.57;3.83;;;10.40;99.90;;;;;;5095223;28;20045;-68
2022/05/29 06:28:57;;;;;;;10.93;2.15;;;11.30;99.90;;;;;;5095128;28;20055;-68
2022/05/29 06:31:23;;;;;;;13.48;2.97;;;10.70;99.90;;;;;;5095149;28;20508;-67
2022/05/29 06:33:49;;;;;;;14.05;2.67;;;10.90;99.90;;;;;;5094817;28;20067;-67
2022/05/29 06:36:18;;;;;;;15.52;2.72;;;10.70;99.90;;;;;;5081501;28;20056;-69
2022/05/29 06:38:45;;;;;;;13.98;2.30;;;11.20;99.90;;;;;;5092719;28;20487;-69
2022/05/29 06:41:14;;;;;;;16.58;2.63;;;11.10;99.90;;;;;;5093025;28;20044;-67
2022/05/29 06:43:40;;;;;;;19.10;2.75;;;10.80;99.90;;;;;;5092377;28;20047;-69
2022/05/29 06:46:08;;;;;;;12.15;3.03;;;10.80;99.90;;;;;;5092506;28;21110;-68
2022/05/29 06:48:35;;;;;;;16.92;2.45;;;10.60;99.90;;;;;;5091980;28;20059;-70
2022/05/29 06:51:13;;;;;;;14.65;2.72;;;10.40;99.90;;;;;;5092546;28;20052;-67
2022/05/29 06:53:39;;;;;;;17.10;2.45;;;10.60;99.90;;;;;;5093533;28;20380;-67
2022/05/29 06:56:06;;;;;;;9.70;2.03;;;10.60;99.90;;;;;;5091764;28;20048;-72
2022/05/29 06:58:32;;;;;;;10.27;2.67;;;11.40;99.90;;;;;;5092156;28;20055;-67
2022/05/29 07:09:19;;;;;;;15.52;3.05;;;10.60;99.90;;;;;;5090988;28;20147;-68
2022/05/29 07:11:48;;;;;;;14.40;2.33;;;10.50;99.90;;;;;;5093175;28;20123;-66
2022/05/29 07:14:15;;;;;;;8.95;1.95;;;10.70;99.90;;;;;;5089733;28;20075;-67
2022/05/29 07:16:41;;;;;;;11.18;2.25;;;10.40;99.90;;;;;;5091206;28;20048;-69
2022/05/29 07:19:07;;;;;;;10.38;1.85;;;10.40;99.90;;;;;;5092583;28;20524;-70
2022/05/29 07:21:38;;;;;;;7.03;1.70;;;10.60;99.90;;;;;;5092296;28;20059;-69
2022/05/29 07:24:05;;;;;;;5.90;1.70;;;10.70;99.90;;;;;;5092924;28;20040;-68
2022/05/29 07:26:31;;;;;;;8.32;2.55;;;10.80;99.90;;;;;;5093669;28;20550;-68
2022/05/29 07:28:56;;;;;;;13.15;2.30;;;10.60;99.90;;;;;;5093817;28;20165;-69
2022/05/29 07:31:22;;;;;;;12.18;2.00;;;10.70;99.90;;;;;;5092718;28;20480;-70
2022/05/29 07:33:48;;;;;;;10.73;2.08;;;10.60;99.90;;;;;;5092748;28;20044;-68
2022/05/29 07:36:14;;;;;;;12.88;2.35;;;10.50;99.90;;;;;;5094342;28;20070;-69
2022/05/29 07:38:40;;;;;;;10.13;2.20;;;11.60;99.90;;;;;;5094254;28;20445;-68
2022/05/29 07:43:54;;;;;;;11.90;2.00;;;10.60;99.90;;;;;;5094015;28;20098;-68
2022/05/29 07:46:21;;;;;;;9.85;2.30;;;10.40;99.90;;;;;;5094110;28;20093;-68
2022/05/29 07:48:46;;;;;;;;;;;10.20;99.90;;;;;;5094469;28;20051;-68
2022/05/29 07:51:12;;;;;;;8.95;2.05;;;9.90;99.90;;;;;;5093892;28;19920;-67
2022/05/29 07:53:38;;;;;;;13.70;2.28;;;10.10;99.90;;;;;;5092695;28;20498;-66
2022/05/29 07:56:04;;;;;;;;;;;10.00;99.90;;;;;;5094225;28;20075;-69
2022/05/29 07:58:30;;;;;;;11.05;2.85;;;10.00;99.90;;;;;;5093914;28;19920;-66
2022/05/29 08:00:56;;;;;;;8.90;2.00;;;10.20;99.90;;;;;;5093704;28;20502;-66
2022/05/29 08:03:23;;;;;;;10.05;2.08;;;10.40;99.90;;;;;;5093802;28;20044;-67
2022/05/29 08:05:49;;;;;;;11.07;2.40;;;10.30;99.90;;;;;;5093733;28;20132;-67
2022/05/29 08:08:15;;;;;;;9.60;2.45;;;10.20;99.90;;;;;;5092461;28;20048;-69
2022/05/29 08:10:43;;;;;;;9.27;1.77;;;10.90;99.90;;;;;;5093497;28;20099;-66
2022/05/29 08:13:09;;;;;;;11.68;1.77;;;10.70;99.90;;;;;;5093528;28;20105;-67
2022/05/29 08:15:36;;;;;;;12.98;1.75;;;11.80;99.90;;;;;;5093500;28;20048;-68
2022/05/29 08:18:02;;;;;;;7.22;1.83;;;10.90;99.90;;;;;;5093488;28;20074;-67
2022/05/29 08:20:29;;;;;;;10.77;2.30;;;10.80;99.90;;;;;;5093453;28;20237;-66
2022/05/29 08:22:55;;;;;;;12.43;2.10;;;10.70;99.90;;;;;;5093189;28;20059;-69
2022/05/29 08:30:53;;;;;;;12.10;2.20;;;10.30;99.90;;;;;;5092651;28;20143;-69
2022/05/29 08:33:28;;;;;;;16.33;2.28;;;11.10;99.90;;;;;;5093066;28;20044;-68
2022/05/29 08:36:08;;;;;;;12.20;2.20;;;10.40;99.90;;;;;;5092924;28;20055;-70
2022/05/29 08:38:37;;;;;;;11.13;2.28;;;10.30;99.90;;;;;;5093160;28;20051;-67
2022/05/29 08:41:40;;;;;;;12.18;2.17;;;10.40;99.90;;;;;;5093031;28;20055;-69
2022/05/29 08:44:10;;;;;;;8.60;2.05;;;10.20;99.90;;;;;;5085865;28;20109;-67
2022/05/29 08:46:40;;;;;;;13.18;1.83;;;10.30;99.90;;;;;;5093105;28;20052;-66
2022/05/29 08:49:10;;;;;;;21.70;2.35;;;10.70;99.90;;;;;;5092782;28;20046;-66
2022/05/29 08:51:44;;;;;;;14.18;2.55;;;10.50;99.90;;;;;;5091643;28;20036;-66
2022/05/29 08:54:23;;;;;;;8.60;1.75;;;10.80;99.90;;;;;;5092690;28;20059;-70
2022/05/29 08:57:04;;;;;;;9.57;2.50;;;10.70;99.90;;;;;;5092885;28;20074;-66
2022/05/29 08:59:56;;;;;;;13.10;2.03;;;10.80;99.90;;;;;;5092819;28;20040;-70
2022/05/29 09:02:34;;;;;;;9.63;1.90;;;10.20;99.90;;;;;;5092695;28;20044;-68
2022/05/29 09:05:29;;;;;;;7.07;1.77;;;10.80;99.90;;;;;;5092969;28;20040;-67
2022/05/29 09:08:01;;;;;;;11.32;1.92;;;11.00;99.90;;;;;;5076086;28;20495;-68
2022/05/29 09:10:43;;;;;;;10.10;1.60;;;11.30;99.90;;;;;;5092644;28;20040;-68
2022/05/29 09:13:19;;;;;;;15.27;3.33;;;11.10;99.90;;;;;;5092463;28;20506;-68
2022/05/29 09:15:51;;;;;;;8.93;2.30;;;11.20;99.90;;;;;;5092609;28;20040;-68
2022/05/29 09:18:36;;;;;;;11.70;2.47;;;11.50;99.90;;;;;;5092510;28;20055;-68
2022/05/29 09:21:15;;;;;;;8.85;2.55;;;12.60;99.90;;;;;;5092433;28;20048;-67
2022/05/29 09:23:49;;;;;;;10.95;1.88;;;12.30;99.90;;;;;;5092423;28;20052;-69
2022/05/29 09:26:21;;;;;;;7.32;2.08;;;11.80;99.90;;;;;;5092425;28;20109;-68
2022/05/29 09:28:47;;;;;;;12.57;2.58;;;11.80;99.90;;;;;;5092525;28;20048;-68
2022/05/29 09:31:13;;;;;;;7.20;2.08;;;11.70;99.90;;;;;;5092305;28;20043;-71
2022/05/29 09:33:39;;;;;;;9.50;1.75;;;11.80;99.90;;;;;;5091937;28;20078;-67
2022/05/29 09:36:20;;;;;;;10.07;1.95;;;12.20;99.90;;;;;;5092305;28;20116;-68
2022/05/29 09:38:51;;;;;;;4.70;1.50;;;11.40;99.90;;;;;;5092418;28;20090;-68
2022/05/29 09:41:31;;;;;;;8.40;1.70;;;11.40;99.90;;;;;;5092629;28;20043;-69
2022/05/29 09:44:19;;;;;;;7.95;2.03;;;11.40;99.90;;;;;;5096441;28;20086;-67
2022/05/29 09:46:50;;;;;;;9.90;1.52;;;11.20;99.90;;;;;;5096635;28;20044;-72
2022/05/29 09:52:10;;;;;;;16.15;2.85;;;11.20;99.90;;;;;;5096232;28;20160;-68
2022/05/29 09:54:53;;;;;;;10.55;2.38;;;11.10;99.90;;;;;;5095892;28;20044;-68
2022/05/29 09:57:29;;;;;;;7.95;1.95;;;10.80;99.90;;;;;;5096320;28;20403;-68
2022/05/29 10:00:14;;;;;;;9.20;1.70;;;11.00;99.90;;;;;;5096018;28;20480;-73
2022/05/29 10:02:47;;;;;;;12.68;2.05;;;11.60;99.90;;;;;;5095549;28;20052;-74
2022/05/29 10:05:28;;;;;;;10.32;2.35;;;11.70;99.90;;;;;;5094637;28;20097;-69
2022/05/29 10:07:57;;;;;;;11.23;2.00;;;12.20;99.90;;;;;;5096081;28;20048;-70
2022/05/29 10:10:25;;;;;;;13.40;2.00;;;12.10;99.90;;;;;;5095913;28;20048;-69
2022/05/29 10:12:54;;;;;;;8.57;1.77;;;12.50;99.90;;;;;;5095862;28;20052;-70
2022/05/29 10:15:26;;;;;;;10.95;1.85;;;12.50;99.90;;;;;;5091230;28;20047;-69
2022/05/29 10:17:53;;;;;;;10.85;2.00;;;12.00;99.90;;;;;;5093760;28;20052;-69
2022/05/29 10:20:41;;;;;;;10.95;2.15;;;12.30;99.90;;;;;;5093513;28;20044;-69
2022/05/29 10:23:31;;;;;;;13.00;2.58;;;12.40;99.90;;;;;;5095357;28;20148;-69
2022/05/29 10:25:59;;;;;;;12.18;1.80;;;11.50;99.90;;;;;;5077483;28;20086;-69
2022/05/29 10:28:30;;;;;;;9.70;1.92;;;12.10;99.90;;;;;;5095480;28;20048;-69
2022/05/29 10:31:04;;;;;;;8.95;2.15;;;12.40;99.90;;;;;;5095583;28;20059;-69
2022/05/29 10:33:32;;;;;;;8.60;2.47;;;11.40;99.90;;;;;;5095241;28;20052;-67
2022/05/29 10:36:16;;;;;;;11.23;2.40;;;11.60;99.90;;;;;;5095304;28;20180;-69
2022/05/29 10:38:44;;;;;;;10.18;2.03;;;12.60;99.90;;;;;;5095559;28;20052;-69
2022/05/29 10:41:10;;;;;;;14.13;3.50;;;12.00;99.90;;;;;;5095322;28;20044;-68
2022/05/29 10:43:47;;;;;;;12.50;2.22;;;12.00;99.90;;;;;;5095460;28;20048;-69
2022/05/29 10:46:22;;;;;;;12.57;2.95;;;12.50;99.90;;;;;;5095212;28;20043;-69
2022/05/29 10:49:05;;;;;;;14.25;2.17;;;12.20;99.90;;;;;;5094867;28;20044;-69
2022/05/29 10:51:52;;;;;;;15.10;2.17;;;12.70;99.90;;;;;;5094139;28;20062;-70
2022/05/29 10:54:54;;;;;;;12.15;2.10;;;12.70;99.90;;;;;;5093629;28;20044;-72
2022/05/29 10:57:29;;;;;;;8.95;2.15;;;12.70;99.90;;;;;;5085380;28;20500;-67
2022/05/29 11:00:01;;;;;;;11.93;3.28;;;12.80;99.90;;;;;;5095015;28;20082;-68
2022/05/29 11:06:01;;;;;;;14.40;2.53;;;12.60;99.90;;;;;;5094900;28;20107;-67
2022/05/29 11:08:45;;;;;;;12.05;2.70;;;12.40;99.90;;;;;;5094822;28;20511;-68
2022/05/29 11:11:22;;;;;;;14.63;2.00;;;12.90;99.90;;;;;;5094802;28;20058;-68
2022/05/29 11:14:03;;;;;;;12.85;2.50;;;12.70;99.90;;;;;;5093343;28;20048;-70
2022/05/29 11:16:50;;;;;;;9.02;2.38;;;12.50;99.90;;;;;;5094613;28;20526;-70
2022/05/29 11:19:25;;;;;;;;;;;12.60;99.90;;;;;;5094824;28;20587;-69
2022/05/29 11:22:38;;;;;;;10.73;2.25;;;12.40;99.90;;;;;;5094548;28;19920;-69
2022/05/29 11:25:33;;;;;;;9.20;1.70;;;12.80;99.90;;;;;;5035195;28;20551;-69
2022/05/29 11:28:20;;;;;;;11.88;1.90;;;12.60;99.90;;;;;;5051997;28;20055;-69
2022/05/29 11:30:46;;;;;;;12.90;2.20;;;12.50;99.90;;;;;;5086378;28;20077;-73
2022/05/29 11:33:23;;;;;;;8.65;2.00;;;13.40;99.90;;;;;;5094209;28;20059;-69
2022/05/29 11:36:01;;;;;;;11.48;2.08;;;12.30;99.90;;;;;;5094220;28;20055;-69
2022/05/29 11:39:08;;;;;;;8.73;1.95;;;12.60;99.90;;;;;;5094227;28;20059;-70
2022/05/29 11:41:41;;;;;;;6.45;2.08;;;12.20;99.90;;;;;;5064209;28;20423;-68
2022/05/29 11:44:30;;;;;;;6.93;1.77;;;12.80;99.90;;;;;;5094270;28;20375;-71
2022/05/29 11:53:03;;;;;;;8.50;1.70;;;12.60;99.90;;;;;;5094003;28;20048;-69
2022/05/29 11:55:34;;;;;;;11.27;1.70;;;12.90;99.90;;;;;;5093767;28;20044;-69
2022/05/29 11:58:12;;;;;;;9.63;1.75;;;13.00;99.90;;;;;;5093076;28;20131;-68
2022/05/29 12:00:48;;;;;;;12.45;1.60;;;12.80;99.90;;;;;;5092485;28;20044;-69
2022/05/29 12:03:45;;;;;;;9.15;1.70;;;13.10;99.90;;;;;;5093810;28;20403;-68
2022/05/29 12:06:22;;;;;;;12.80;1.83;;;12.50;99.90;;;;;;5093644;28;20142;-67
2022/05/29 12:08:56;;;;;;;7.70;1.85;;;12.50;99.90;;;;;;5093806;28;20052;-69
2022/05/29 12:11:40;;;;;;;19.17;2.28;;;12.40;99.90;;;;;;5093689;28;20071;-69
2022/05/29 12:14:09;;;;;;;8.93;2.10;;;12.50;99.90;;;;;;5093504;28;20070;-69
2022/05/29 12:16:38;;;;;;;10.90;2.00;;;12.60;99.90;;;;;;5093565;28;20047;-70
2022/05/29 12:19:15;;;;;;;8.23;1.60;;;12.40;99.90;;;;;;5093702;28;20120;-69
2022/05/29 12:21:52;;;;;;;7.97;1.77;;;12.60;99.90;;;;;;5093432;28;20040;-68
2022/05/29 12:24:26;;;;;;;11.10;1.77;;;13.00;99.90;;;;;;5093388;28;20381;-71
2022/05/29 12:27:35;;;;;;;11.27;2.35;;;12.90;99.90;;;;;;5092057;28;20091;-69
2022/05/29 12:30:06;;;;;;;9.18;1.85;;;12.90;99.90;;;;;;5069806;28;20083;-68
2022/05/29 12:32:35;;;;;;;9.45;1.85;;;13.00;99.90;;;;;;5093290;28;20134;-69
2022/05/29 12:35:00;;;;;;;10.98;2.00;;;13.60;99.90;;;;;;5093024;28;20400;-68
2022/05/29 12:37:38;;;;;;;12.00;2.13;;;13.30;99.90;;;;;;5093211;28;20146;-71
2022/05/29 12:40:37;;;;;;;8.77;2.42;;;13.40;99.90;;;;;;5093338;28;20051;-72
2022/05/29 12:43:36;;;;;;;9.45;2.22;;;13.10;99.90;;;;;;5093167;28;20056;-69
2022/05/29 12:46:35;;;;;;;16.38;2.10;;;14.20;99.90;;;;;;5071789;28;20056;-67
2022/05/29 12:49:31;;;;;;;9.77;2.38;;;12.90;99.90;;;;;;5091841;28;20537;-69
2022/05/29 12:52:21;;;;;;;12.07;1.92;;;12.60;99.90;;;;;;5092765;28;20450;-69
2022/05/29 12:55:17;;;;;;;15.80;2.63;;;12.30;99.90;;;;;;5091577;28;20040;-70
2022/05/29 12:58:12;;;;;;;7.97;2.10;;;12.40;99.90;;;;;;5092917;28;20052;-67
2022/05/29 13:01:07;;;;;;;11.13;2.20;;;12.20;99.90;;;;;;5092845;28;20140;-71
2022/05/29 13:03:57;;;;;;;13.18;2.58;;;12.20;99.90;;;;;;5091638;28;20067;-70
2022/05/29 13:06:25;;;;;;;10.10;1.63;;;11.90;99.90;;;;;;5092708;28;20048;-68
2022/05/29 13:09:28;;;;;;;8.30;1.80;;;12.10;99.90;;;;;;5092757;28;20073;-68
2022/05/29 13:12:00;;;;;;;11.20;1.63;;;12.20;99.90;;;;;;5092763;28;20098;-69
2022/05/29 13:14:27;;;;;;;11.25;1.90;;;12.40;99.90;;;;;;5092432;28;20115;-69
2022/05/29 13:17:08;;;;;;;7.65;1.52;;;12.00;99.90;;;;;;5092188;28;20055;-69
2022/05/29 13:20:11;;;;;;;7.47;1.67;;;12.20;99.90;;;;;;5092794;28;20052;-68
2022/05/29 13:22:52;;;;;;;9.35;1.85;;;12.60;99.90;;;;;;5092493;28;20048;-66
2022/05/29 13:25:24;;;;;;;12.57;1.80;;;12.50;99.90;;;;;;5092408;28;20046;-68
2022/05/29 13:27:51;;;;;;;11.10;2.50;;;12.50;99.90;;;;;;5092686;28;20464;-68
2022/05/29 13:30:36;;;;;;;9.73;2.35;;;12.80;99.90;;;;;;5092397;28;20071;-68
2022/05/29 13:33:26;;;;;;;10.52;1.95;;;12.90;99.90;;;;;;5092412;28;20472;-68
2022/05/29 13:35:53;;;;;;;12.95;2.40;;;13.50;99.90;;;;;;5092154;28;20062;-66
2022/05/29 13:38:55;;;;;;;14.27;1.98;;;13.40;99.90;;;;;;5091414;28;20087;-67
2022/05/29 13:41:30;;;;;;;12.13;2.15;;;13.60;99.90;;;;;;5049805;28;20122;-68
2022/05/29 13:44:17;;;;;;;17.03;2.60;;;13.20;99.90;;;;;;5086462;28;20116;-67
2022/05/29 13:46:43;;;;;;;12.80;2.45;;;13.30;99.90;;;;;;5092269;28;20062;-68
2022/05/29 13:49:21;;;;;;;18.63;2.22;;;13.20;99.90;;;;;;5092123;28;20506;-69